sensor_id;sensor_type;location;lat;lon;timestamp;P1;durP1;ratioP1;P2;durP2;ratioP2
27333;SDS011;14817;57.104;-2.094;2023-06-10T00:01:40;4.97;;;3.42;;
27333;SDS011;14817;57.104;-2.094;2023-06-10T00:04:08;7.63;;;4.43;;
27333;SDS011;14817;57.104;-2.094;2023-06-10T00:06:35;6.93;;;4.35;;
27333;SDS011;14817;57.104;-2.094;2023-06-10T00:09:03;9.60;;;4.47;;
27333;SDS011;14817;57.104;-2.094;2023-06-10T00:11:37;6.00;;;4.50;;
27333;SDS011;14817;57.104;-2.094;2023-06-10T00:14:04;9.15;;;5.07;;
27333;SDS011;14817;57.104;-2.094;2023-06-10T00:16:31;8.40;;;4.63;;
27333;SDS011;14817;57.104;-2.094;2023-06-10T00:19:01;8.82;;;4.53;;
27333;SDS011;14817;57.104;-2.094;2023-06-10T00:21:31;8.02;;;4.40;;
27333;SDS011;14817;57.104;-2.094;2023-06-10T00:24:07;7.88;;;5.13;;
27333;SDS011;14817;57.104;-2.094;2023-06-10T00:26:39;6.55;;;4.38;;
27333;SDS011;14817;57.104;-2.094;2023-06-10T00:29:07;8.18;;;5.82;;
27333;SDS011;14817;57.104;-2.094;2023-06-10T00:31:35;10.32;;;5.22;;
27333;SDS011;14817;57.104;-2.094;2023-06-10T00:34:06;8.82;;;5.70;;
27333;SDS011;14817;57.104;-2.094;2023-06-10T00:36:33;16.83;;;6.38;;
27333;SDS011;14817;57.104;-2.094;2023-06-10T00:39:02;8.35;;;5.30;;
27333;SDS011;14817;57.104;-2.094;2023-06-10T00:41:30;8.75;;;5.68;;
27333;SDS011;14817;57.104;-2.094;2023-06-10T00:43:58;10.75;;;5.45;;
27333;SDS011;14817;57.104;-2.094;2023-06-10T00:46:25;9.23;;;5.00;;
27333;SDS011;14817;57.104;-2.094;2023-06-10T00:48:54;8.43;;;5.07;;
27333;SDS011;14817;57.104;-2.094;2023-06-10T00:51:21;8.20;;;4.28;;
27333;SDS011;14817;57.104;-2.094;2023-06-10T00:53:49;9.15;;;4.97;;
27333;SDS011;14817;57.104;-2.094;2023-06-10T00:56:16;6.60;;;3.97;;
27333;SDS011;14817;57.104;-2.094;2023-06-10T00:58:43;6.28;;;4.13;;
27333;SDS011;14817;57.104;-2.094;2023-06-10T01:01:11;7.45;;;4.30;;
27333;SDS011;14817;57.104;-2.094;2023-06-10T01:03:39;7.00;;;3.92;;
27333;SDS011;14817;57.104;-2.094;2023-06-10T01:06:09;12.00;;;5.15;;
27333;SDS011;14817;57.104;-2.094;2023-06-10T01:08:48;10.55;;;4.20;;
27333;SDS011;14817;57.104;-2.094;2023-06-10T01:11:28;6.82;;;4.88;;
27333;SDS011;14817;57.104;-2.094;2023-06-10T01:14:00;6.68;;;4.65;;
27333;SDS011;14817;57.104;-2.094;2023-06-10T01:16:28;7.70;;;4.40;;
27333;SDS011;14817;57.104;-2.094;2023-06-10T01:18:55;7.18;;;4.63;;
27333;SDS011;14817;57.104;-2.094;2023-06-10T01:21:24;15.20;;;4.97;;
27333;SDS011;14817;57.104;-2.094;2023-06-10T01:23:52;10.43;;;4.47;;
27333;SDS011;14817;57.104;-2.094;2023-06-10T01:26:23;7.97;;;4.10;;
27333;SDS011;14817;57.104;-2.094;2023-06-10T01:28:57;8.73;;;4.10;;
27333;SDS011;14817;57.104;-2.094;2023-06-10T01:31:32;11.63;;;4.25;;
27333;SDS011;14817;57.104;-2.094;2023-06-10T01:34:08;6.30;;;4.18;;
27333;SDS011;14817;57.104;-2.094;2023-06-10T01:36:39;4.93;;;3.28;;
27333;SDS011;14817;57.104;-2.094;2023-06-10T01:39:08;4.78;;;2.97;;
27333;SDS011;14817;57.104;-2.094;2023-06-10T01:41:37;7.13;;;3.50;;
27333;SDS011;14817;57.104;-2.094;2023-06-10T01:44:04;9.38;;;3.20;;
27333;SDS011;14817;57.104;-2.094;2023-06-10T01:46:31;6.63;;;3.22;;
27333;SDS011;14817;57.104;-2.094;2023-06-10T01:48:58;10.10;;;3.38;;
27333;SDS011;14817;57.104;-2.094;2023-06-10T01:51:25;7.22;;;3.78;;
27333;SDS011;14817;57.104;-2.094;2023-06-10T01:53:52;6.53;;;3.78;;
27333;SDS011;14817;57.104;-2.094;2023-06-10T01:56:19;6.53;;;3.13;;
27333;SDS011;14817;57.104;-2.094;2023-06-10T01:58:47;4.43;;;3.08;;
27333;SDS011;14817;57.104;-2.094;2023-06-10T02:01:13;10.85;;;3.40;;
27333;SDS011;14817;57.104;-2.094;2023-06-10T02:03:41;7.35;;;3.20;;
27333;SDS011;14817;57.104;-2.094;2023-06-10T02:06:08;8.40;;;3.75;;
27333;SDS011;14817;57.104;-2.094;2023-06-10T02:08:35;6.20;;;3.75;;
27333;SDS011;14817;57.104;-2.094;2023-06-10T02:11:01;9.95;;;3.42;;
27333;SDS011;14817;57.104;-2.094;2023-06-10T02:13:28;6.43;;;3.90;;
27333;SDS011;14817;57.104;-2.094;2023-06-10T02:15:56;9.38;;;3.35;;
27333;SDS011;14817;57.104;-2.094;2023-06-10T02:18:28;11.85;;;3.83;;
27333;SDS011;14817;57.104;-2.094;2023-06-10T02:20:55;10.75;;;3.50;;
27333;SDS011;14817;57.104;-2.094;2023-06-10T02:23:21;7.15;;;3.65;;
27333;SDS011;14817;57.104;-2.094;2023-06-10T02:25:48;8.95;;;3.45;;
27333;SDS011;14817;57.104;-2.094;2023-06-10T02:28:16;5.50;;;4.03;;
27333;SDS011;14817;57.104;-2.094;2023-06-10T02:30:44;6.10;;;3.03;;
27333;SDS011;14817;57.104;-2.094;2023-06-10T02:33:11;9.00;;;4.15;;
27333;SDS011;14817;57.104;-2.094;2023-06-10T02:35:39;6.85;;;3.42;;
27333;SDS011;14817;57.104;-2.094;2023-06-10T02:38:06;8.55;;;3.40;;
27333;SDS011;14817;57.104;-2.094;2023-06-10T02:40:34;5.50;;;3.20;;
27333;SDS011;14817;57.104;-2.094;2023-06-10T02:43:01;6.05;;;3.22;;
27333;SDS011;14817;57.104;-2.094;2023-06-10T02:45:28;6.20;;;3.35;;
27333;SDS011;14817;57.104;-2.094;2023-06-10T02:47:57;7.63;;;3.65;;
27333;SDS011;14817;57.104;-2.094;2023-06-10T02:50:24;10.57;;;3.80;;
27333;SDS011;14817;57.104;-2.094;2023-06-10T02:53:06;5.20;;;3.53;;
27333;SDS011;14817;57.104;-2.094;2023-06-10T02:55:34;11.48;;;4.32;;
27333;SDS011;14817;57.104;-2.094;2023-06-10T02:58:04;12.20;;;4.13;;
27333;SDS011;14817;57.104;-2.094;2023-06-10T03:00:32;9.32;;;4.07;;
27333;SDS011;14817;57.104;-2.094;2023-06-10T03:02:59;5.53;;;3.20;;
27333;SDS011;14817;57.104;-2.094;2023-06-10T03:05:33;8.63;;;3.25;;
27333;SDS011;14817;57.104;-2.094;2023-06-10T03:08:03;11.63;;;3.83;;
27333;SDS011;14817;57.104;-2.094;2023-06-10T03:10:32;8.02;;;3.38;;
27333;SDS011;14817;57.104;-2.094;2023-06-10T03:13:00;5.50;;;2.95;;
27333;SDS011;14817;57.104;-2.094;2023-06-10T03:15:27;10.00;;;3.78;;
27333;SDS011;14817;57.104;-2.094;2023-06-10T03:17:55;5.88;;;4.00;;
27333;SDS011;14817;57.104;-2.094;2023-06-10T03:20:22;7.45;;;3.72;;
27333;SDS011;14817;57.104;-2.094;2023-06-10T03:22:50;9.23;;;4.55;;
27333;SDS011;14817;57.104;-2.094;2023-06-10T03:25:18;7.25;;;3.67;;
27333;SDS011;14817;57.104;-2.094;2023-06-10T03:27:50;6.10;;;3.63;;
27333;SDS011;14817;57.104;-2.094;2023-06-10T03:30:18;12.88;;;7.03;;
27333;SDS011;14817;57.104;-2.094;2023-06-10T03:32:46;7.32;;;3.95;;
27333;SDS011;14817;57.104;-2.094;2023-06-10T03:35:15;9.35;;;4.00;;
27333;SDS011;14817;57.104;-2.094;2023-06-10T03:37:44;7.80;;;4.30;;
27333;SDS011;14817;57.104;-2.094;2023-06-10T03:40:11;9.30;;;4.22;;
27333;SDS011;14817;57.104;-2.094;2023-06-10T03:42:41;6.90;;;4.05;;
27333;SDS011;14817;57.104;-2.094;2023-06-10T03:45:08;8.23;;;3.45;;
27333;SDS011;14817;57.104;-2.094;2023-06-10T03:47:36;14.48;;;4.18;;
27333;SDS011;14817;57.104;-2.094;2023-06-10T03:50:07;7.82;;;3.63;;
27333;SDS011;14817;57.104;-2.094;2023-06-10T03:52:35;9.13;;;4.18;;
27333;SDS011;14817;57.104;-2.094;2023-06-10T03:55:04;5.82;;;3.72;;
27333;SDS011;14817;57.104;-2.094;2023-06-10T03:57:33;5.57;;;3.65;;
27333;SDS011;14817;57.104;-2.094;2023-06-10T03:59:59;8.30;;;3.70;;
27333;SDS011;14817;57.104;-2.094;2023-06-10T04:02:28;8.95;;;3.53;;
27333;SDS011;14817;57.104;-2.094;2023-06-10T04:04:55;8.45;;;4.43;;
27333;SDS011;14817;57.104;-2.094;2023-06-10T04:07:22;6.78;;;3.63;;
27333;SDS011;14817;57.104;-2.094;2023-06-10T04:09:50;5.10;;;3.63;;
27333;SDS011;14817;57.104;-2.094;2023-06-10T04:12:17;6.95;;;2.88;;
27333;SDS011;14817;57.104;-2.094;2023-06-10T04:14:44;8.48;;;3.88;;
27333;SDS011;14817;57.104;-2.094;2023-06-10T04:17:11;12.00;;;3.95;;
27333;SDS011;14817;57.104;-2.094;2023-06-10T04:19:38;9.27;;;3.53;;
27333;SDS011;14817;57.104;-2.094;2023-06-10T04:22:06;7.80;;;3.92;;
27333;SDS011;14817;57.104;-2.094;2023-06-10T04:24:33;5.93;;;3.53;;
27333;SDS011;14817;57.104;-2.094;2023-06-10T04:27:00;8.13;;;4.18;;
27333;SDS011;14817;57.104;-2.094;2023-06-10T04:29:27;9.35;;;4.05;;
27333;SDS011;14817;57.104;-2.094;2023-06-10T04:31:54;7.53;;;3.67;;
27333;SDS011;14817;57.104;-2.094;2023-06-10T04:34:21;7.63;;;4.22;;
27333;SDS011;14817;57.104;-2.094;2023-06-10T04:36:48;4.68;;;3.47;;
27333;SDS011;14817;57.104;-2.094;2023-06-10T04:39:16;8.00;;;3.70;;
27333;SDS011;14817;57.104;-2.094;2023-06-10T04:41:44;7.45;;;3.65;;
27333;SDS011;14817;57.104;-2.094;2023-06-10T04:44:12;7.47;;;3.95;;
27333;SDS011;14817;57.104;-2.094;2023-06-10T04:46:40;6.78;;;3.22;;
27333;SDS011;14817;57.104;-2.094;2023-06-10T04:49:08;10.70;;;3.60;;
27333;SDS011;14817;57.104;-2.094;2023-06-10T04:51:35;9.07;;;3.42;;
27333;SDS011;14817;57.104;-2.094;2023-06-10T04:54:02;7.90;;;2.97;;
27333;SDS011;14817;57.104;-2.094;2023-06-10T04:56:30;7.07;;;4.00;;
27333;SDS011;14817;57.104;-2.094;2023-06-10T04:58:57;6.45;;;3.30;;
27333;SDS011;14817;57.104;-2.094;2023-06-10T05:01:24;8.85;;;3.83;;
27333;SDS011;14817;57.104;-2.094;2023-06-10T05:03:51;7.55;;;3.78;;
27333;SDS011;14817;57.104;-2.094;2023-06-10T05:06:18;8.25;;;3.90;;
27333;SDS011;14817;57.104;-2.094;2023-06-10T05:08:45;5.35;;;3.78;;
27333;SDS011;14817;57.104;-2.094;2023-06-10T05:11:12;10.45;;;4.40;;
27333;SDS011;14817;57.104;-2.094;2023-06-10T05:13:41;6.20;;;3.45;;
27333;SDS011;14817;57.104;-2.094;2023-06-10T05:16:09;19.98;;;9.48;;
27333;SDS011;14817;57.104;-2.094;2023-06-10T05:18:36;7.70;;;3.63;;
27333;SDS011;14817;57.104;-2.094;2023-06-10T05:21:03;7.97;;;5.03;;
27333;SDS011;14817;57.104;-2.094;2023-06-10T05:23:30;6.65;;;4.25;;
27333;SDS011;14817;57.104;-2.094;2023-06-10T05:25:57;7.55;;;3.85;;
27333;SDS011;14817;57.104;-2.094;2023-06-10T05:28:24;7.97;;;3.88;;
27333;SDS011;14817;57.104;-2.094;2023-06-10T05:30:52;7.80;;;3.22;;
27333;SDS011;14817;57.104;-2.094;2023-06-10T05:33:19;11.98;;;3.78;;
27333;SDS011;14817;57.104;-2.094;2023-06-10T05:35:45;12.50;;;4.07;;
27333;SDS011;14817;57.104;-2.094;2023-06-10T05:38:12;7.38;;;3.45;;
27333;SDS011;14817;57.104;-2.094;2023-06-10T05:40:39;6.90;;;3.05;;
27333;SDS011;14817;57.104;-2.094;2023-06-10T05:43:06;6.72;;;3.60;;
27333;SDS011;14817;57.104;-2.094;2023-06-10T05:45:33;8.23;;;3.17;;
27333;SDS011;14817;57.104;-2.094;2023-06-10T05:48:00;8.40;;;3.15;;
27333;SDS011;14817;57.104;-2.094;2023-06-10T05:50:27;6.43;;;3.10;;
27333;SDS011;14817;57.104;-2.094;2023-06-10T05:52:54;7.88;;;2.90;;
27333;SDS011;14817;57.104;-2.094;2023-06-10T05:55:21;6.78;;;3.30;;
27333;SDS011;14817;57.104;-2.094;2023-06-10T05:57:48;7.20;;;3.00;;
27333;SDS011;14817;57.104;-2.094;2023-06-10T06:00:25;4.32;;;2.65;;
27333;SDS011;14817;57.104;-2.094;2023-06-10T06:02:52;5.72;;;2.83;;
27333;SDS011;14817;57.104;-2.094;2023-06-10T06:05:21;7.10;;;3.28;;
27333;SDS011;14817;57.104;-2.094;2023-06-10T06:07:48;10.05;;;3.50;;
27333;SDS011;14817;57.104;-2.094;2023-06-10T06:10:16;23.15;;;9.77;;
27333;SDS011;14817;57.104;-2.094;2023-06-10T06:12:44;7.05;;;3.55;;
27333;SDS011;14817;57.104;-2.094;2023-06-10T06:15:11;8.43;;;3.17;;
27333;SDS011;14817;57.104;-2.094;2023-06-10T06:17:38;9.38;;;2.85;;
27333;SDS011;14817;57.104;-2.094;2023-06-10T06:20:05;5.80;;;2.47;;
27333;SDS011;14817;57.104;-2.094;2023-06-10T06:22:32;9.73;;;2.63;;
27333;SDS011;14817;57.104;-2.094;2023-06-10T06:24:59;7.38;;;2.80;;
27333;SDS011;14817;57.104;-2.094;2023-06-10T06:27:27;9.68;;;2.80;;
27333;SDS011;14817;57.104;-2.094;2023-06-10T06:29:54;7.30;;;2.63;;
27333;SDS011;14817;57.104;-2.094;2023-06-10T06:32:21;6.75;;;2.85;;
27333;SDS011;14817;57.104;-2.094;2023-06-10T06:34:49;11.18;;;2.40;;
27333;SDS011;14817;57.104;-2.094;2023-06-10T06:40:00;13.77;;;2.92;;
27333;SDS011;14817;57.104;-2.094;2023-06-10T06:42:30;11.88;;;2.90;;
27333;SDS011;14817;57.104;-2.094;2023-06-10T06:45:02;11.75;;;2.97;;
27333;SDS011;14817;57.104;-2.094;2023-06-10T06:47:29;9.38;;;2.80;;
27333;SDS011;14817;57.104;-2.094;2023-06-10T06:49:56;9.27;;;2.72;;
27333;SDS011;14817;57.104;-2.094;2023-06-10T06:52:23;7.10;;;2.22;;
27333;SDS011;14817;57.104;-2.094;2023-06-10T06:54:49;6.05;;;1.90;;
27333;SDS011;14817;57.104;-2.094;2023-06-10T06:57:16;8.35;;;2.90;;
27333;SDS011;14817;57.104;-2.094;2023-06-10T06:59:43;11.05;;;2.72;;
27333;SDS011;14817;57.104;-2.094;2023-06-10T07:02:10;10.25;;;2.42;;
27333;SDS011;14817;57.104;-2.094;2023-06-10T07:04:37;6.75;;;2.05;;
27333;SDS011;14817;57.104;-2.094;2023-06-10T07:07:04;8.43;;;1.98;;
27333;SDS011;14817;57.104;-2.094;2023-06-10T07:09:34;7.38;;;2.20;;
27333;SDS011;14817;57.104;-2.094;2023-06-10T07:12:00;9.95;;;2.50;;
27333;SDS011;14817;57.104;-2.094;2023-06-10T07:14:27;5.82;;;2.60;;
27333;SDS011;14817;57.104;-2.094;2023-06-10T07:16:54;6.63;;;2.10;;
27333;SDS011;14817;57.104;-2.094;2023-06-10T07:19:21;7.80;;;2.40;;
27333;SDS011;14817;57.104;-2.094;2023-06-10T07:21:48;8.73;;;2.20;;
27333;SDS011;14817;57.104;-2.094;2023-06-10T07:24:15;7.93;;;2.53;;
27333;SDS011;14817;57.104;-2.094;2023-06-10T07:26:42;5.47;;;2.47;;
27333;SDS011;14817;57.104;-2.094;2023-06-10T07:29:09;5.03;;;2.05;;
27333;SDS011;14817;57.104;-2.094;2023-06-10T07:31:36;8.20;;;2.67;;
27333;SDS011;14817;57.104;-2.094;2023-06-10T07:34:03;5.00;;;2.08;;
27333;SDS011;14817;57.104;-2.094;2023-06-10T07:36:30;8.07;;;2.40;;
27333;SDS011;14817;57.104;-2.094;2023-06-10T07:38:57;5.50;;;2.40;;
27333;SDS011;14817;57.104;-2.094;2023-06-10T07:41:24;5.88;;;2.10;;
27333;SDS011;14817;57.104;-2.094;2023-06-10T07:43:54;6.28;;;2.33;;
27333;SDS011;14817;57.104;-2.094;2023-06-10T07:46:21;4.75;;;2.17;;
27333;SDS011;14817;57.104;-2.094;2023-06-10T07:48:49;9.20;;;3.08;;
27333;SDS011;14817;57.104;-2.094;2023-06-10T07:51:16;6.72;;;2.42;;
27333;SDS011;14817;57.104;-2.094;2023-06-10T07:53:43;5.93;;;1.90;;
27333;SDS011;14817;57.104;-2.094;2023-06-10T07:56:10;5.97;;;2.10;;
27333;SDS011;14817;57.104;-2.094;2023-06-10T07:58:38;5.47;;;1.98;;
27333;SDS011;14817;57.104;-2.094;2023-06-10T08:01:05;5.50;;;2.55;;
27333;SDS011;14817;57.104;-2.094;2023-06-10T08:03:32;6.18;;;2.28;;
27333;SDS011;14817;57.104;-2.094;2023-06-10T08:05:59;6.57;;;2.65;;
27333;SDS011;14817;57.104;-2.094;2023-06-10T08:08:26;5.97;;;1.83;;
27333;SDS011;14817;57.104;-2.094;2023-06-10T08:10:53;6.93;;;2.20;;
27333;SDS011;14817;57.104;-2.094;2023-06-10T08:13:20;9.25;;;2.28;;
27333;SDS011;14817;57.104;-2.094;2023-06-10T08:15:47;6.97;;;2.38;;
27333;SDS011;14817;57.104;-2.094;2023-06-10T08:18:17;6.57;;;1.98;;
27333;SDS011;14817;57.104;-2.094;2023-06-10T08:20:43;5.60;;;1.80;;
27333;SDS011;14817;57.104;-2.094;2023-06-10T08:23:10;4.25;;;1.60;;
27333;SDS011;14817;57.104;-2.094;2023-06-10T08:25:37;5.85;;;2.25;;
27333;SDS011;14817;57.104;-2.094;2023-06-10T08:28:04;5.43;;;2.08;;
27333;SDS011;14817;57.104;-2.094;2023-06-10T08:30:31;5.82;;;2.13;;
27333;SDS011;14817;57.104;-2.094;2023-06-10T08:32:58;5.35;;;2.42;;
27333;SDS011;14817;57.104;-2.094;2023-06-10T08:35:26;7.57;;;2.13;;
27333;SDS011;14817;57.104;-2.094;2023-06-10T08:37:53;7.05;;;2.10;;
27333;SDS011;14817;57.104;-2.094;2023-06-10T08:40:20;7.78;;;2.20;;
27333;SDS011;14817;57.104;-2.094;2023-06-10T08:43:00;6.97;;;2.40;;
27333;SDS011;14817;57.104;-2.094;2023-06-10T08:45:32;6.95;;;2.70;;
27333;SDS011;14817;57.104;-2.094;2023-06-10T08:48:05;5.78;;;2.47;;
27333;SDS011;14817;57.104;-2.094;2023-06-10T08:50:38;5.75;;;1.90;;
27333;SDS011;14817;57.104;-2.094;2023-06-10T08:53:05;5.25;;;1.77;;
27333;SDS011;14817;57.104;-2.094;2023-06-10T08:55:35;7.68;;;2.80;;
27333;SDS011;14817;57.104;-2.094;2023-06-10T08:58:04;6.10;;;2.03;;
27333;SDS011;14817;57.104;-2.094;2023-06-10T09:00:31;4.40;;;2.17;;
27333;SDS011;14817;57.104;-2.094;2023-06-10T09:02:58;7.35;;;2.00;;
27333;SDS011;14817;57.104;-2.094;2023-06-10T09:05:33;8.68;;;2.10;;
27333;SDS011;14817;57.104;-2.094;2023-06-10T09:08:01;11.10;;;2.55;;
27333;SDS011;14817;57.104;-2.094;2023-06-10T09:10:29;5.35;;;1.83;;
27333;SDS011;14817;57.104;-2.094;2023-06-10T09:12:56;10.27;;;2.50;;
27333;SDS011;14817;57.104;-2.094;2023-06-10T09:15:23;7.95;;;2.20;;
27333;SDS011;14817;57.104;-2.094;2023-06-10T09:17:50;9.27;;;2.40;;
27333;SDS011;14817;57.104;-2.094;2023-06-10T09:20:18;6.47;;;1.90;;
27333;SDS011;14817;57.104;-2.094;2023-06-10T09:22:45;7.65;;;1.95;;
27333;SDS011;14817;57.104;-2.094;2023-06-10T09:25:12;7.15;;;1.98;;
27333;SDS011;14817;57.104;-2.094;2023-06-10T09:27:48;7.10;;;2.10;;
27333;SDS011;14817;57.104;-2.094;2023-06-10T09:30:27;7.10;;;2.30;;
27333;SDS011;14817;57.104;-2.094;2023-06-10T09:32:56;6.10;;;1.88;;
27333;SDS011;14817;57.104;-2.094;2023-06-10T09:35:25;7.15;;;2.08;;
27333;SDS011;14817;57.104;-2.094;2023-06-10T09:37:57;8.63;;;2.80;;
27333;SDS011;14817;57.104;-2.094;2023-06-10T09:40:25;7.18;;;2.38;;
27333;SDS011;14817;57.104;-2.094;2023-06-10T09:42:58;10.18;;;2.17;;
27333;SDS011;14817;57.104;-2.094;2023-06-10T09:45:32;8.02;;;2.10;;
27333;SDS011;14817;57.104;-2.094;2023-06-10T09:48:00;13.25;;;2.17;;
27333;SDS011;14817;57.104;-2.094;2023-06-10T09:50:27;6.40;;;1.77;;
27333;SDS011;14817;57.104;-2.094;2023-06-10T09:52:54;4.53;;;1.85;;
27333;SDS011;14817;57.104;-2.094;2023-06-10T09:55:21;14.32;;;2.65;;
27333;SDS011;14817;57.104;-2.094;2023-06-10T09:57:52;10.65;;;2.35;;
27333;SDS011;14817;57.104;-2.094;2023-06-10T10:00:21;7.20;;;2.05;;
27333;SDS011;14817;57.104;-2.094;2023-06-10T10:02:51;14.25;;;2.88;;
27333;SDS011;14817;57.104;-2.094;2023-06-10T10:05:21;9.02;;;2.08;;
27333;SDS011;14817;57.104;-2.094;2023-06-10T10:07:49;13.63;;;2.42;;
27333;SDS011;14817;57.104;-2.094;2023-06-10T10:10:17;8.85;;;2.40;;
27333;SDS011;14817;57.104;-2.094;2023-06-10T10:12:46;14.02;;;2.97;;
27333;SDS011;14817;57.104;-2.094;2023-06-10T10:15:15;10.93;;;2.28;;
27333;SDS011;14817;57.104;-2.094;2023-06-10T10:17:53;5.22;;;2.20;;
27333;SDS011;14817;57.104;-2.094;2023-06-10T10:20:31;6.93;;;2.30;;
27333;SDS011;14817;57.104;-2.094;2023-06-10T10:23:03;7.38;;;2.00;;
27333;SDS011;14817;57.104;-2.094;2023-06-10T10:25:32;4.80;;;2.33;;
27333;SDS011;14817;57.104;-2.094;2023-06-10T10:28:04;6.47;;;2.20;;
27333;SDS011;14817;57.104;-2.094;2023-06-10T10:31:01;5.00;;;1.90;;
27333;SDS011;14817;57.104;-2.094;2023-06-10T10:36:03;7.30;;;1.98;;
27333;SDS011;14817;57.104;-2.094;2023-06-10T10:38:31;6.35;;;1.70;;
27333;SDS011;14817;57.104;-2.094;2023-06-10T10:40:58;11.10;;;2.33;;
27333;SDS011;14817;57.104;-2.094;2023-06-10T10:43:27;8.18;;;2.20;;
27333;SDS011;14817;57.104;-2.094;2023-06-10T10:46:02;7.68;;;2.42;;
27333;SDS011;14817;57.104;-2.094;2023-06-10T10:48:37;8.25;;;2.65;;
27333;SDS011;14817;57.104;-2.094;2023-06-10T10:51:05;9.15;;;2.65;;
27333;SDS011;14817;57.104;-2.094;2023-06-10T10:53:32;7.53;;;2.45;;
27333;SDS011;14817;57.104;-2.094;2023-06-10T10:58:26;9.23;;;3.15;;
27333;SDS011;14817;57.104;-2.094;2023-06-10T11:00:53;7.72;;;2.25;;
27333;SDS011;14817;57.104;-2.094;2023-06-10T11:03:21;6.82;;;2.30;;
27333;SDS011;14817;57.104;-2.094;2023-06-10T11:05:48;5.68;;;2.00;;
27333;SDS011;14817;57.104;-2.094;2023-06-10T11:10:55;7.80;;;2.70;;
27333;SDS011;14817;57.104;-2.094;2023-06-10T11:13:22;5.93;;;1.83;;
27333;SDS011;14817;57.104;-2.094;2023-06-10T11:15:49;5.75;;;2.53;;
27333;SDS011;14817;57.104;-2.094;2023-06-10T11:28:40;7.43;;;2.30;;
27333;SDS011;14817;57.104;-2.094;2023-06-10T11:31:08;10.63;;;3.17;;
27333;SDS011;14817;57.104;-2.094;2023-06-10T11:33:53;5.45;;;2.17;;
27333;SDS011;14817;57.104;-2.094;2023-06-10T11:36:21;6.03;;;2.55;;
27333;SDS011;14817;57.104;-2.094;2023-06-10T11:38:49;8.77;;;2.72;;
27333;SDS011;14817;57.104;-2.094;2023-06-10T11:41:19;11.98;;;2.63;;
27333;SDS011;14817;57.104;-2.094;2023-06-10T11:43:47;10.98;;;3.33;;
27333;SDS011;14817;57.104;-2.094;2023-06-10T11:46:14;16.75;;;3.42;;
27333;SDS011;14817;57.104;-2.094;2023-06-10T11:48:54;10.68;;;3.33;;
27333;SDS011;14817;57.104;-2.094;2023-06-10T11:51:25;9.23;;;2.60;;
27333;SDS011;14817;57.104;-2.094;2023-06-10T11:53:53;9.05;;;2.70;;
27333;SDS011;14817;57.104;-2.094;2023-06-10T11:56:24;8.63;;;2.78;;
27333;SDS011;14817;57.104;-2.094;2023-06-10T12:01:37;9.48;;;3.47;;
27333;SDS011;14817;57.104;-2.094;2023-06-10T12:04:10;9.38;;;2.85;;
27333;SDS011;14817;57.104;-2.094;2023-06-10T12:09:15;8.75;;;2.50;;
27333;SDS011;14817;57.104;-2.094;2023-06-10T12:20:01;8.55;;;2.40;;
27333;SDS011;14817;57.104;-2.094;2023-06-10T12:22:48;6.68;;;2.75;;
27333;SDS011;14817;57.104;-2.094;2023-06-10T12:25:15;7.88;;;2.50;;
27333;SDS011;14817;57.104;-2.094;2023-06-10T12:27:52;7.43;;;3.20;;
27333;SDS011;14817;57.104;-2.094;2023-06-10T12:30:20;8.18;;;3.25;;
27333;SDS011;14817;57.104;-2.094;2023-06-10T12:32:48;7.28;;;2.88;;
27333;SDS011;14817;57.104;-2.094;2023-06-10T12:35:17;11.02;;;3.22;;
27333;SDS011;14817;57.104;-2.094;2023-06-10T12:37:57;7.57;;;2.92;;
27333;SDS011;14817;57.104;-2.094;2023-06-10T12:40:30;6.50;;;2.72;;
27333;SDS011;14817;57.104;-2.094;2023-06-10T12:42:58;9.25;;;2.97;;
27333;SDS011;14817;57.104;-2.094;2023-06-10T12:45:28;7.88;;;2.72;;
27333;SDS011;14817;57.104;-2.094;2023-06-10T12:48:12;8.83;;;2.73;;
27333;SDS011;14817;57.104;-2.094;2023-06-10T12:50:45;6.15;;;2.30;;
27333;SDS011;14817;57.104;-2.094;2023-06-10T12:53:16;7.43;;;2.42;;
27333;SDS011;14817;57.104;-2.094;2023-06-10T12:55:43;7.50;;;2.88;;
27333;SDS011;14817;57.104;-2.094;2023-06-10T12:58:11;8.38;;;3.10;;
27333;SDS011;14817;57.104;-2.094;2023-06-10T13:00:39;8.75;;;2.45;;
27333;SDS011;14817;57.104;-2.094;2023-06-10T13:03:07;7.65;;;3.17;;
27333;SDS011;14817;57.104;-2.094;2023-06-10T13:05:35;8.70;;;3.00;;
27333;SDS011;14817;57.104;-2.094;2023-06-10T13:08:06;7.82;;;3.10;;
27333;SDS011;14817;57.104;-2.094;2023-06-10T13:10:36;10.15;;;3.47;;
27333;SDS011;14817;57.104;-2.094;2023-06-10T13:13:03;7.32;;;3.13;;
27333;SDS011;14817;57.104;-2.094;2023-06-10T13:15:36;12.13;;;3.17;;
27333;SDS011;14817;57.104;-2.094;2023-06-10T13:18:08;12.10;;;3.92;;
27333;SDS011;14817;57.104;-2.094;2023-06-10T13:20:35;10.15;;;3.53;;
27333;SDS011;14817;57.104;-2.094;2023-06-10T13:23:02;7.82;;;2.97;;
27333;SDS011;14817;57.104;-2.094;2023-06-10T13:25:29;10.23;;;4.57;;
27333;SDS011;14817;57.104;-2.094;2023-06-10T13:27:56;10.82;;;4.07;;
27333;SDS011;14817;57.104;-2.094;2023-06-10T13:30:23;12.27;;;4.38;;
27333;SDS011;14817;57.104;-2.094;2023-06-10T13:32:51;9.55;;;4.38;;
27333;SDS011;14817;57.104;-2.094;2023-06-10T13:35:18;9.43;;;3.88;;
27333;SDS011;14817;57.104;-2.094;2023-06-10T13:37:45;10.00;;;4.22;;
27333;SDS011;14817;57.104;-2.094;2023-06-10T13:40:11;13.23;;;4.68;;
27333;SDS011;14817;57.104;-2.094;2023-06-10T13:42:38;10.35;;;4.45;;
27333;SDS011;14817;57.104;-2.094;2023-06-10T13:45:05;9.32;;;4.60;;
27333;SDS011;14817;57.104;-2.094;2023-06-10T13:47:33;10.20;;;5.45;;
27333;SDS011;14817;57.104;-2.094;2023-06-10T13:50:00;8.50;;;5.15;;
27333;SDS011;14817;57.104;-2.094;2023-06-10T13:52:27;7.20;;;4.50;;
27333;SDS011;14817;57.104;-2.094;2023-06-10T13:54:54;9.80;;;5.15;;
27333;SDS011;14817;57.104;-2.094;2023-06-10T13:57:21;7.50;;;4.70;;
27333;SDS011;14817;57.104;-2.094;2023-06-10T13:59:48;9.05;;;4.60;;
27333;SDS011;14817;57.104;-2.094;2023-06-10T14:02:15;8.18;;;4.40;;
27333;SDS011;14817;57.104;-2.094;2023-06-10T14:04:42;10.18;;;5.40;;
27333;SDS011;14817;57.104;-2.094;2023-06-10T14:07:09;8.50;;;4.72;;
27333;SDS011;14817;57.104;-2.094;2023-06-10T14:09:35;9.75;;;5.15;;
27333;SDS011;14817;57.104;-2.094;2023-06-10T14:12:02;8.57;;;5.47;;
27333;SDS011;14817;57.104;-2.094;2023-06-10T14:14:30;8.10;;;5.53;;
27333;SDS011;14817;57.104;-2.094;2023-06-10T14:16:57;7.72;;;4.95;;
27333;SDS011;14817;57.104;-2.094;2023-06-10T14:19:25;7.47;;;5.15;;
27333;SDS011;14817;57.104;-2.094;2023-06-10T14:21:51;6.35;;;4.88;;
27333;SDS011;14817;57.104;-2.094;2023-06-10T14:24:20;6.90;;;5.47;;
27333;SDS011;14817;57.104;-2.094;2023-06-10T14:26:47;6.13;;;4.72;;
27333;SDS011;14817;57.104;-2.094;2023-06-10T14:29:14;6.07;;;4.88;;
27333;SDS011;14817;57.104;-2.094;2023-06-10T14:31:41;4.75;;;4.22;;
27333;SDS011;14817;57.104;-2.094;2023-06-10T14:34:08;5.22;;;4.30;;
27333;SDS011;14817;57.104;-2.094;2023-06-10T14:36:35;5.03;;;3.90;;
27333;SDS011;14817;57.104;-2.094;2023-06-10T14:39:03;6.05;;;4.65;;
27333;SDS011;14817;57.104;-2.094;2023-06-10T14:41:30;4.47;;;4.05;;
27333;SDS011;14817;57.104;-2.094;2023-06-10T14:43:57;5.68;;;4.05;;
27333;SDS011;14817;57.104;-2.094;2023-06-10T14:46:24;5.10;;;4.07;;
27333;SDS011;14817;57.104;-2.094;2023-06-10T14:48:51;5.60;;;4.10;;
27333;SDS011;14817;57.104;-2.094;2023-06-10T14:51:18;5.63;;;4.63;;
27333;SDS011;14817;57.104;-2.094;2023-06-10T14:53:47;8.13;;;5.35;;
27333;SDS011;14817;57.104;-2.094;2023-06-10T14:56:14;8.63;;;5.70;;
27333;SDS011;14817;57.104;-2.094;2023-06-10T14:58:41;9.65;;;4.93;;
27333;SDS011;14817;57.104;-2.094;2023-06-10T15:01:08;6.53;;;4.95;;
27333;SDS011;14817;57.104;-2.094;2023-06-10T15:03:35;7.68;;;5.60;;
27333;SDS011;14817;57.104;-2.094;2023-06-10T15:06:01;10.90;;;6.18;;
27333;SDS011;14817;57.104;-2.094;2023-06-10T15:08:29;7.50;;;5.03;;
27333;SDS011;14817;57.104;-2.094;2023-06-10T15:10:56;10.38;;;6.03;;
27333;SDS011;14817;57.104;-2.094;2023-06-10T15:13:23;10.23;;;5.88;;
27333;SDS011;14817;57.104;-2.094;2023-06-10T15:15:51;9.20;;;5.80;;